Erzurum Bolge, Turkey

3:05 AM +03 on December 08, 2016 (GMT +0300)
Erzurum | | Change Station

Elev 5768 ft 39.96 °N, 41.17 °E | Updated 15 minutes ago

Scattered Clouds
Scattered Clouds
-4 °F
Feels Like -12 °F
N
4
Wind Variable Wind from NE

Today
High -- | Low -- °F
--% Chance of Precip.
Yesterday
High -- | Low -- °F
Precip. -- in
Pressure 30.24 in
Visibility 6.2 miles
Clouds Scattered Clouds 3500 ft
Windchill -12 °F
Dew Point -8 °F
Humidity 85%
Rainfall 0.00 in
Snow Depth Not available.
7:23 AM 4:49 PM
First Quarter, 57% visible
METAR LTCE 072350Z 04003KT 270V070 9999 SCT035 M20/M22 Q1024 NOSIG RMK RWY08R 35004KT RWY26R 00000KT RWY08L 02003KT 340V060
Pressure 30.24 in
Visibility 6.2 miles
Clouds Scattered Clouds 3500 ft
Windchill -12 °F
Dew Point -8 °F
Humidity 85%
Rainfall 0.00 in
Snow Depth Not available.
7:23 AM 4:49 PM
First Quarter, 57% visible
METAR LTCE 072350Z 04003KT 270V070 9999 SCT035 M20/M22 Q1024 NOSIG RMK RWY08R 35004KT RWY26R 00000KT RWY08L 02003KT 340V060

10-Day Weather Forecast

Heavy Snow conditions possible.
×

Almanac

Astronomy

Dec. 08, 2016 Rise Set
Actual Time
Civil Twilight
Nautical Twilight
Astronomical Twilight
Moon
Length of Visible Light
Length of Day
Tomorrow will be .
, % of the Moon is Illuminated

Today's Extremes

Country Highs Country Lows

Community

WunderPhotos

Upload Photos

1,956,221 photos uploaded!

WunderBlog® & News

Nearby

Air Quality

  Air Quality AQ Index Pollutant
Not available.

Snow Depth

Station Depth Elevation

Earthquake Activity

City Distance Mag. Time & Date
Minimum magnitude displayed is 2.5.

Coastal Water Temperatures

Place Temperature

Stations

Nearby Weather Stations

Station Location Temp. Windchill Dew Point Humidity Wind Precip. Elev Updated Type